Terminal Aerodrome Forecast
Issued by NWS

Home | Current Version | Previous Version | Text Only | Print | Product List | Glossary On
Versions: 1 2 3 4 5 6 7 8 9 10 11 12 13 14 15 16
035
FTUS46 KHNX 022323
TAFMER
TAF
KMER 022323Z 0300/0324 04005KT P6SM SKC
     FM030600 12003KT 4SM BR SKC
      TEMPO 0313/0317 2SM BR
     FM032100 VRB03KT 6SM HZ SKC=

USA.gov is the U.S. government's official web portal to all federal, state and local government web resources and services.